Pagina principale
METAR-TAF:

METAR-TAF

Aeroporti :

Bergamo, Italia

Aeroporto di Bergamo-Orio al Serio

latitudine: 45-40N, longitudine: 009-42E, altezza: 238 m

Osservazione

Il bollettino è stato emesso 18 minuti fa, alle 13:20 UTC
Vento 4 kt da sud/sud-est, variando fra est e sud-ovest
Temperature 18°C
Umidità 64%
Pressione 1011 hPa
Visibilità 10 km o più
Nubi sparse ad un'altezza di 4500 ft

METAR: LIME 191320Z 15004KT 080V220 9999 SCT045 18/11 Q1011 NOSIG

Ora: 15:38 (13:38 UTC)

Previsione

Il bollettino è stato emesso 2 ore e 38 minuti fa, alle 11:00 UTC
Previsione valida dal 19 alle 12 UTC al 20 alle 12 UTC
Vento 5 kt da direzioni variabili
Visibilità 10 km o più
Nuvoloso ad un'altezza di 8000 ft
Probabilità 40% :
Temporaneamente
dal 19 alle 12 UTC al 19 alle 16 UTC
Visibilità: 4000 m
temporale, pioggia

TAF: LIME 191100Z 1912/2012 VRB05KT 9999 BKN080 PROB40 TEMPO 1912/1916 4000 TSRA

Osservazioni e previsioni meteorologiche di più di 4000 aeroporti (messaggi METAR e TAF).

Le stazioni disponibili sono rappresentate dai dischi gialli e rossi sulla carta.

Puntare il mouse per vedere il nome della stazione.

Clicca sopra per visualizzare le osservazioni e previsioni meteorologiche.

Per cambiare la mappa : fare clic sui pulsanti verdi con una croce nera per ingrandire, il pulsante verde con un trattino per diminuire, o sulla freccia verde per le mappe adiacenti.


METAR-TAF: